sensor_id;sensor_type;location;lat;lon;timestamp;temperature;humidity
3380;DHT22;1703;51.964;7.642;2023-04-05T00:01:54;6.40;99.90
3380;DHT22;1703;51.964;7.642;2023-04-05T00:04:21;6.40;99.90
3380;DHT22;1703;51.964;7.642;2023-04-05T00:06:48;6.30;99.90
3380;DHT22;1703;51.964;7.642;2023-04-05T00:09:17;6.30;99.90
3380;DHT22;1703;51.964;7.642;2023-04-05T00:11:45;6.30;99.90
3380;DHT22;1703;51.964;7.642;2023-04-05T00:14:13;6.30;99.90
3380;DHT22;1703;51.964;7.642;2023-04-05T00:16:40;6.20;99.90
3380;DHT22;1703;51.964;7.642;2023-04-05T00:19:08;6.10;99.90
3380;DHT22;1703;51.964;7.642;2023-04-05T00:21:37;6.10;99.90
3380;DHT22;1703;51.964;7.642;2023-04-05T00:24:04;6.00;99.90
3380;DHT22;1703;51.964;7.642;2023-04-05T00:26:32;6.00;99.90
3380;DHT22;1703;51.964;7.642;2023-04-05T00:29:00;6.00;99.90
3380;DHT22;1703;51.964;7.642;2023-04-05T00:31:28;5.90;99.90
3380;DHT22;1703;51.964;7.642;2023-04-05T00:33:55;5.90;99.90
3380;DHT22;1703;51.964;7.642;2023-04-05T00:36:23;5.90;99.90
3380;DHT22;1703;51.964;7.642;2023-04-05T00:38:50;5.80;99.90
3380;DHT22;1703;51.964;7.642;2023-04-05T00:41:19;5.80;99.90
3380;DHT22;1703;51.964;7.642;2023-04-05T00:43:46;5.80;99.90
3380;DHT22;1703;51.964;7.642;2023-04-05T00:46:13;5.80;99.90
3380;DHT22;1703;51.964;7.642;2023-04-05T00:48:41;5.80;99.90
3380;DHT22;1703;51.964;7.642;2023-04-05T00:51:09;5.70;99.90
3380;DHT22;1703;51.964;7.642;2023-04-05T00:53:38;5.60;99.90
3380;DHT22;1703;51.964;7.642;2023-04-05T00:56:07;5.70;99.90
3380;DHT22;1703;51.964;7.642;2023-04-05T00:58:34;5.60;99.90
3380;DHT22;1703;51.964;7.642;2023-04-05T01:01:04;5.50;99.90
3380;DHT22;1703;51.964;7.642;2023-04-05T01:03:41;5.60;99.90
3380;DHT22;1703;51.964;7.642;2023-04-05T01:06:16;5.60;99.90
3380;DHT22;1703;51.964;7.642;2023-04-05T01:08:54;5.50;99.90
3380;DHT22;1703;51.964;7.642;2023-04-05T01:11:25;5.50;99.90
3380;DHT22;1703;51.964;7.642;2023-04-05T01:13:57;5.40;99.90
3380;DHT22;1703;51.964;7.642;2023-04-05T01:16:24;5.40;99.90
3380;DHT22;1703;51.964;7.642;2023-04-05T01:18:51;5.30;99.90
3380;DHT22;1703;51.964;7.642;2023-04-05T01:22:06;5.20;99.90
3380;DHT22;1703;51.964;7.642;2023-04-05T01:24:53;5.10;99.90
3380;DHT22;1703;51.964;7.642;2023-04-05T01:27:47;5.10;99.90
3380;DHT22;1703;51.964;7.642;2023-04-05T01:30:20;5.00;99.90
3380;DHT22;1703;51.964;7.642;2023-04-05T01:32:57;5.00;99.90
3380;DHT22;1703;51.964;7.642;2023-04-05T01:35:31;5.00;99.90
3380;DHT22;1703;51.964;7.642;2023-04-05T01:38:04;5.10;99.90
3380;DHT22;1703;51.964;7.642;2023-04-05T01:40:34;5.00;99.90
3380;DHT22;1703;51.964;7.642;2023-04-05T01:43:01;5.00;99.90
3380;DHT22;1703;51.964;7.642;2023-04-05T01:45:29;5.00;99.90
3380;DHT22;1703;51.964;7.642;2023-04-05T01:47:56;5.00;99.90
3380;DHT22;1703;51.964;7.642;2023-04-05T01:50:23;5.00;99.90
3380;DHT22;1703;51.964;7.642;2023-04-05T01:52:50;5.00;99.90
3380;DHT22;1703;51.964;7.642;2023-04-05T01:55:17;5.00;99.90
3380;DHT22;1703;51.964;7.642;2023-04-05T01:57:43;5.00;99.90
3380;DHT22;1703;51.964;7.642;2023-04-05T02:00:11;5.00;99.90
3380;DHT22;1703;51.964;7.642;2023-04-05T02:02:39;5.00;99.90
3380;DHT22;1703;51.964;7.642;2023-04-05T02:05:07;5.00;99.90
3380;DHT22;1703;51.964;7.642;2023-04-05T02:07:35;4.90;99.90
3380;DHT22;1703;51.964;7.642;2023-04-05T02:10:02;4.90;99.90
3380;DHT22;1703;51.964;7.642;2023-04-05T02:12:29;4.90;99.90
3380;DHT22;1703;51.964;7.642;2023-04-05T02:14:56;4.80;99.90
3380;DHT22;1703;51.964;7.642;2023-04-05T02:17:23;4.70;99.90
3380;DHT22;1703;51.964;7.642;2023-04-05T02:19:51;4.70;99.90
3380;DHT22;1703;51.964;7.642;2023-04-05T02:22:18;4.70;99.90
3380;DHT22;1703;51.964;7.642;2023-04-05T02:24:45;4.60;99.90
3380;DHT22;1703;51.964;7.642;2023-04-05T02:27:12;4.70;99.90
3380;DHT22;1703;51.964;7.642;2023-04-05T02:29:39;4.60;99.90
3380;DHT22;1703;51.964;7.642;2023-04-05T02:32:06;4.60;99.90
3380;DHT22;1703;51.964;7.642;2023-04-05T02:34:33;4.60;99.90
3380;DHT22;1703;51.964;7.642;2023-04-05T02:37:02;4.50;99.90
3380;DHT22;1703;51.964;7.642;2023-04-05T02:39:29;4.50;99.90
3380;DHT22;1703;51.964;7.642;2023-04-05T02:41:56;4.50;99.90
3380;DHT22;1703;51.964;7.642;2023-04-05T02:44:23;4.50;99.90
3380;DHT22;1703;51.964;7.642;2023-04-05T02:46:52;4.40;99.90
3380;DHT22;1703;51.964;7.642;2023-04-05T02:49:25;4.40;99.90
3380;DHT22;1703;51.964;7.642;2023-04-05T02:51:53;4.40;99.90
3380;DHT22;1703;51.964;7.642;2023-04-05T02:54:22;4.40;99.90
3380;DHT22;1703;51.964;7.642;2023-04-05T02:56:56;4.30;99.90
3380;DHT22;1703;51.964;7.642;2023-04-05T02:59:28;4.30;99.90
3380;DHT22;1703;51.964;7.642;2023-04-05T03:01:55;4.20;99.90
3380;DHT22;1703;51.964;7.642;2023-04-05T03:04:26;4.20;99.90
3380;DHT22;1703;51.964;7.642;2023-04-05T03:06:58;4.20;99.90
3380;DHT22;1703;51.964;7.642;2023-04-05T03:09:30;4.20;99.90
3380;DHT22;1703;51.964;7.642;2023-04-05T03:12:03;4.20;99.90
3380;DHT22;1703;51.964;7.642;2023-04-05T03:14:34;4.10;99.90
3380;DHT22;1703;51.964;7.642;2023-04-05T03:17:02;4.10;99.90
3380;DHT22;1703;51.964;7.642;2023-04-05T03:19:35;4.10;99.90
3380;DHT22;1703;51.964;7.642;2023-04-05T03:22:12;4.00;99.90
3380;DHT22;1703;51.964;7.642;2023-04-05T03:24:41;4.00;99.90
3380;DHT22;1703;51.964;7.642;2023-04-05T03:27:09;4.00;99.90
3380;DHT22;1703;51.964;7.642;2023-04-05T03:29:53;4.00;99.90
3380;DHT22;1703;51.964;7.642;2023-04-05T03:32:20;4.00;99.90
3380;DHT22;1703;51.964;7.642;2023-04-05T03:34:53;4.00;99.90
3380;DHT22;1703;51.964;7.642;2023-04-05T03:37:21;3.90;99.90
3380;DHT22;1703;51.964;7.642;2023-04-05T03:39:59;3.90;99.90
3380;DHT22;1703;51.964;7.642;2023-04-05T03:42:26;3.90;99.90
3380;DHT22;1703;51.964;7.642;2023-04-05T03:44:53;3.90;99.90
3380;DHT22;1703;51.964;7.642;2023-04-05T03:47:20;3.80;99.90
3380;DHT22;1703;51.964;7.642;2023-04-05T03:49:49;3.90;99.90
3380;DHT22;1703;51.964;7.642;2023-04-05T03:52:16;3.80;99.90
3380;DHT22;1703;51.964;7.642;2023-04-05T03:54:44;3.70;99.90
3380;DHT22;1703;51.964;7.642;2023-04-05T03:57:15;3.70;99.90
3380;DHT22;1703;51.964;7.642;2023-04-05T03:59:43;3.80;99.90
3380;DHT22;1703;51.964;7.642;2023-04-05T04:02:11;3.80;99.90
3380;DHT22;1703;51.964;7.642;2023-04-05T04:04:38;3.80;99.90
3380;DHT22;1703;51.964;7.642;2023-04-05T04:07:05;3.70;99.90
3380;DHT22;1703;51.964;7.642;2023-04-05T04:09:33;3.70;99.90
3380;DHT22;1703;51.964;7.642;2023-04-05T04:12:06;3.70;99.90
3380;DHT22;1703;51.964;7.642;2023-04-05T04:14:38;3.60;99.90
3380;DHT22;1703;51.964;7.642;2023-04-05T04:17:25;3.60;99.90
3380;DHT22;1703;51.964;7.642;2023-04-05T04:20:12;3.60;99.90
3380;DHT22;1703;51.964;7.642;2023-04-05T04:22:49;3.60;99.90
3380;DHT22;1703;51.964;7.642;2023-04-05T04:25:50;3.60;99.90
3380;DHT22;1703;51.964;7.642;2023-04-05T04:28:31;3.60;99.90
3380;DHT22;1703;51.964;7.642;2023-04-05T04:31:30;3.60;99.90
3380;DHT22;1703;51.964;7.642;2023-04-05T04:34:27;3.60;99.90
3380;DHT22;1703;51.964;7.642;2023-04-05T04:37:29;3.60;99.90
3380;DHT22;1703;51.964;7.642;2023-04-05T04:40:15;3.50;99.90
3380;DHT22;1703;51.964;7.642;2023-04-05T04:42:59;3.50;99.90
3380;DHT22;1703;51.964;7.642;2023-04-05T04:45:40;3.50;99.90
3380;DHT22;1703;51.964;7.642;2023-04-05T04:48:41;3.40;99.90
3380;DHT22;1703;51.964;7.642;2023-04-05T04:51:23;3.40;99.90
3380;DHT22;1703;51.964;7.642;2023-04-05T04:53:50;3.40;99.90
3380;DHT22;1703;51.964;7.642;2023-04-05T04:56:17;3.40;99.90
3380;DHT22;1703;51.964;7.642;2023-04-05T04:58:44;3.40;99.90
3380;DHT22;1703;51.964;7.642;2023-04-05T05:01:10;3.40;99.90
3380;DHT22;1703;51.964;7.642;2023-04-05T05:03:37;3.40;99.90
3380;DHT22;1703;51.964;7.642;2023-04-05T05:06:06;3.50;99.90
3380;DHT22;1703;51.964;7.642;2023-04-05T05:08:34;3.40;99.90
3380;DHT22;1703;51.964;7.642;2023-04-05T05:11:03;3.50;99.90
3380;DHT22;1703;51.964;7.642;2023-04-05T05:13:31;3.40;99.90
3380;DHT22;1703;51.964;7.642;2023-04-05T05:15:59;3.40;99.90
3380;DHT22;1703;51.964;7.642;2023-04-05T05:18:26;3.50;99.90
3380;DHT22;1703;51.964;7.642;2023-04-05T05:20:53;3.40;99.90
3380;DHT22;1703;51.964;7.642;2023-04-05T05:23:21;3.50;99.90
3380;DHT22;1703;51.964;7.642;2023-04-05T05:25:48;3.50;99.90
3380;DHT22;1703;51.964;7.642;2023-04-05T05:28:15;3.40;99.90
3380;DHT22;1703;51.964;7.642;2023-04-05T05:30:42;3.50;99.90
3380;DHT22;1703;51.964;7.642;2023-04-05T05:33:09;3.40;99.90
3380;DHT22;1703;51.964;7.642;2023-04-05T05:35:36;3.40;99.90
3380;DHT22;1703;51.964;7.642;2023-04-05T05:38:03;3.50;99.90
3380;DHT22;1703;51.964;7.642;2023-04-05T05:40:31;3.50;99.90
3380;DHT22;1703;51.964;7.642;2023-04-05T05:42:58;3.50;99.90
3380;DHT22;1703;51.964;7.642;2023-04-05T05:45:25;3.60;99.90
3380;DHT22;1703;51.964;7.642;2023-04-05T05:47:52;3.60;99.90
3380;DHT22;1703;51.964;7.642;2023-04-05T05:50:18;3.60;99.90
3380;DHT22;1703;51.964;7.642;2023-04-05T05:52:46;3.50;99.90
3380;DHT22;1703;51.964;7.642;2023-04-05T05:55:12;3.50;99.90
3380;DHT22;1703;51.964;7.642;2023-04-05T05:57:41;3.50;99.90
3380;DHT22;1703;51.964;7.642;2023-04-05T06:00:08;3.50;99.90
3380;DHT22;1703;51.964;7.642;2023-04-05T06:02:39;3.60;99.90
3380;DHT22;1703;51.964;7.642;2023-04-05T06:05:06;3.60;99.90
3380;DHT22;1703;51.964;7.642;2023-04-05T06:07:35;3.70;99.90
3380;DHT22;1703;51.964;7.642;2023-04-05T06:10:02;3.80;99.90
3380;DHT22;1703;51.964;7.642;2023-04-05T06:12:29;3.90;99.90
3380;DHT22;1703;51.964;7.642;2023-04-05T06:14:57;3.90;99.90
3380;DHT22;1703;51.964;7.642;2023-04-05T06:17:24;4.00;99.90
3380;DHT22;1703;51.964;7.642;2023-04-05T06:19:50;4.10;99.90
3380;DHT22;1703;51.964;7.642;2023-04-05T06:22:17;4.20;99.90
3380;DHT22;1703;51.964;7.642;2023-04-05T06:24:44;4.30;99.90
3380;DHT22;1703;51.964;7.642;2023-04-05T06:27:11;4.40;99.90
3380;DHT22;1703;51.964;7.642;2023-04-05T06:29:39;4.50;99.90
3380;DHT22;1703;51.964;7.642;2023-04-05T06:32:07;4.60;99.90
3380;DHT22;1703;51.964;7.642;2023-04-05T06:34:34;4.70;99.90
3380;DHT22;1703;51.964;7.642;2023-04-05T06:37:00;4.80;99.90
3380;DHT22;1703;51.964;7.642;2023-04-05T06:39:28;4.90;99.90
3380;DHT22;1703;51.964;7.642;2023-04-05T06:41:55;5.00;99.90
3380;DHT22;1703;51.964;7.642;2023-04-05T06:44:26;5.10;99.90
3380;DHT22;1703;51.964;7.642;2023-04-05T06:46:53;5.20;99.90
3380;DHT22;1703;51.964;7.642;2023-04-05T06:49:21;5.10;99.90
3380;DHT22;1703;51.964;7.642;2023-04-05T06:51:48;4.90;99.90
3380;DHT22;1703;51.964;7.642;2023-04-05T06:54:15;5.00;99.90
3380;DHT22;1703;51.964;7.642;2023-04-05T06:56:42;5.00;99.90
3380;DHT22;1703;51.964;7.642;2023-04-05T06:59:09;5.10;99.90
3380;DHT22;1703;51.964;7.642;2023-04-05T07:01:36;5.30;99.90
3380;DHT22;1703;51.964;7.642;2023-04-05T07:04:02;5.40;99.90
3380;DHT22;1703;51.964;7.642;2023-04-05T07:06:31;5.50;99.90
3380;DHT22;1703;51.964;7.642;2023-04-05T07:09:00;5.60;99.90
3380;DHT22;1703;51.964;7.642;2023-04-05T07:11:27;5.60;99.90
3380;DHT22;1703;51.964;7.642;2023-04-05T07:13:57;5.60;99.90
3380;DHT22;1703;51.964;7.642;2023-04-05T07:16:24;5.60;99.90
3380;DHT22;1703;51.964;7.642;2023-04-05T07:18:50;5.60;99.90
3380;DHT22;1703;51.964;7.642;2023-04-05T07:21:17;5.70;99.90
3380;DHT22;1703;51.964;7.642;2023-04-05T07:23:45;5.70;99.90
3380;DHT22;1703;51.964;7.642;2023-04-05T07:26:12;5.80;99.90
3380;DHT22;1703;51.964;7.642;2023-04-05T07:28:39;6.00;99.90
3380;DHT22;1703;51.964;7.642;2023-04-05T07:31:06;6.10;99.90
3380;DHT22;1703;51.964;7.642;2023-04-05T07:33:33;6.10;99.90
3380;DHT22;1703;51.964;7.642;2023-04-05T07:36:00;6.20;99.90
3380;DHT22;1703;51.964;7.642;2023-04-05T07:38:27;6.30;99.90
3380;DHT22;1703;51.964;7.642;2023-04-05T07:40:56;6.40;99.90
3380;DHT22;1703;51.964;7.642;2023-04-05T07:43:23;6.40;99.90
3380;DHT22;1703;51.964;7.642;2023-04-05T07:45:51;6.60;99.90
3380;DHT22;1703;51.964;7.642;2023-04-05T07:48:18;6.60;99.90
3380;DHT22;1703;51.964;7.642;2023-04-05T07:50:45;6.60;99.90
3380;DHT22;1703;51.964;7.642;2023-04-05T07:53:13;6.70;99.90
3380;DHT22;1703;51.964;7.642;2023-04-05T07:55:40;6.70;99.90
3380;DHT22;1703;51.964;7.642;2023-04-05T07:58:08;6.80;99.90
3380;DHT22;1703;51.964;7.642;2023-04-05T08:00:35;6.90;99.90
3380;DHT22;1703;51.964;7.642;2023-04-05T08:03:02;6.90;99.90
3380;DHT22;1703;51.964;7.642;2023-04-05T08:05:30;7.00;99.90
3380;DHT22;1703;51.964;7.642;2023-04-05T08:07:57;7.10;99.90
3380;DHT22;1703;51.964;7.642;2023-04-05T08:10:23;7.10;99.90
3380;DHT22;1703;51.964;7.642;2023-04-05T08:12:50;7.10;99.90
3380;DHT22;1703;51.964;7.642;2023-04-05T08:15:18;7.20;99.90
3380;DHT22;1703;51.964;7.642;2023-04-05T08:17:45;7.30;99.90
3380;DHT22;1703;51.964;7.642;2023-04-05T08:20:12;7.50;99.90
3380;DHT22;1703;51.964;7.642;2023-04-05T08:22:39;7.40;99.90
3380;DHT22;1703;51.964;7.642;2023-04-05T08:25:07;7.50;99.90
3380;DHT22;1703;51.964;7.642;2023-04-05T08:27:34;7.60;99.90
3380;DHT22;1703;51.964;7.642;2023-04-05T08:30:01;7.70;99.90
3380;DHT22;1703;51.964;7.642;2023-04-05T08:32:29;7.80;99.90
3380;DHT22;1703;51.964;7.642;2023-04-05T08:35:01;7.90;99.90
3380;DHT22;1703;51.964;7.642;2023-04-05T08:37:27;8.10;99.90
3380;DHT22;1703;51.964;7.642;2023-04-05T08:39:54;8.10;99.90
3380;DHT22;1703;51.964;7.642;2023-04-05T08:42:27;8.00;99.90
3380;DHT22;1703;51.964;7.642;2023-04-05T08:44:56;8.00;99.90
3380;DHT22;1703;51.964;7.642;2023-04-05T08:47:26;8.10;99.90
3380;DHT22;1703;51.964;7.642;2023-04-05T08:49:54;8.30;99.90
3380;DHT22;1703;51.964;7.642;2023-04-05T08:52:21;8.30;99.90
3380;DHT22;1703;51.964;7.642;2023-04-05T08:54:48;8.40;99.90
3380;DHT22;1703;51.964;7.642;2023-04-05T08:57:15;8.50;99.90
3380;DHT22;1703;51.964;7.642;2023-04-05T08:59:43;8.50;99.90
3380;DHT22;1703;51.964;7.642;2023-04-05T09:02:14;8.50;99.90
3380;DHT22;1703;51.964;7.642;2023-04-05T09:04:43;8.50;99.90
3380;DHT22;1703;51.964;7.642;2023-04-05T09:07:13;8.70;99.90
3380;DHT22;1703;51.964;7.642;2023-04-05T09:09:43;8.80;99.90
3380;DHT22;1703;51.964;7.642;2023-04-05T09:12:12;8.90;99.90
3380;DHT22;1703;51.964;7.642;2023-04-05T09:14:40;9.00;99.90
3380;DHT22;1703;51.964;7.642;2023-04-05T09:17:07;9.00;99.90
3380;DHT22;1703;51.964;7.642;2023-04-05T09:19:35;9.00;99.90
3380;DHT22;1703;51.964;7.642;2023-04-05T09:22:03;9.10;99.90
3380;DHT22;1703;51.964;7.642;2023-04-05T09:24:38;9.20;99.90
3380;DHT22;1703;51.964;7.642;2023-04-05T09:27:07;9.20;99.90
3380;DHT22;1703;51.964;7.642;2023-04-05T09:29:34;9.00;99.90
3380;DHT22;1703;51.964;7.642;2023-04-05T09:32:04;9.00;99.90
3380;DHT22;1703;51.964;7.642;2023-04-05T09:34:32;9.20;99.90
3380;DHT22;1703;51.964;7.642;2023-04-05T09:37:01;9.40;99.90
3380;DHT22;1703;51.964;7.642;2023-04-05T09:39:29;9.40;99.90
3380;DHT22;1703;51.964;7.642;2023-04-05T09:42:08;9.50;99.90
3380;DHT22;1703;51.964;7.642;2023-04-05T09:44:52;9.60;99.90
3380;DHT22;1703;51.964;7.642;2023-04-05T09:47:20;9.60;99.90
3380;DHT22;1703;51.964;7.642;2023-04-05T09:49:51;9.50;99.90
3380;DHT22;1703;51.964;7.642;2023-04-05T09:52:24;9.70;99.90
3380;DHT22;1703;51.964;7.642;2023-04-05T09:54:55;9.70;99.90
3380;DHT22;1703;51.964;7.642;2023-04-05T09:57:25;9.80;99.90
3380;DHT22;1703;51.964;7.642;2023-04-05T09:59:52;9.70;99.90
3380;DHT22;1703;51.964;7.642;2023-04-05T10:02:20;9.80;99.90
3380;DHT22;1703;51.964;7.642;2023-04-05T10:04:48;9.80;99.90
3380;DHT22;1703;51.964;7.642;2023-04-05T10:07:18;9.80;99.90
3380;DHT22;1703;51.964;7.642;2023-04-05T10:09:47;9.80;99.90
3380;DHT22;1703;51.964;7.642;2023-04-05T10:12:20;9.80;99.90
3380;DHT22;1703;51.964;7.642;2023-04-05T10:14:51;9.80;99.90
3380;DHT22;1703;51.964;7.642;2023-04-05T10:17:22;9.70;99.90
3380;DHT22;1703;51.964;7.642;2023-04-05T10:19:56;9.90;99.90
3380;DHT22;1703;51.964;7.642;2023-04-05T10:22:33;9.90;99.90
3380;DHT22;1703;51.964;7.642;2023-04-05T10:25:06;10.10;99.90
3380;DHT22;1703;51.964;7.642;2023-04-05T10:27:38;10.30;99.30
3380;DHT22;1703;51.964;7.642;2023-04-05T10:30:12;10.30;99.90
3380;DHT22;1703;51.964;7.642;2023-04-05T10:32:45;10.30;99.90
3380;DHT22;1703;51.964;7.642;2023-04-05T10:35:16;10.30;99.90
3380;DHT22;1703;51.964;7.642;2023-04-05T10:37:53;10.50;99.30
3380;DHT22;1703;51.964;7.642;2023-04-05T10:40:22;10.50;96.80
3380;DHT22;1703;51.964;7.642;2023-04-05T10:42:54;10.50;95.80
3380;DHT22;1703;51.964;7.642;2023-04-05T10:45:24;10.50;95.70
3380;DHT22;1703;51.964;7.642;2023-04-05T10:47:54;10.50;95.80
3380;DHT22;1703;51.964;7.642;2023-04-05T10:50:23;10.60;94.40
3380;DHT22;1703;51.964;7.642;2023-04-05T10:52:51;10.60;94.50
3380;DHT22;1703;51.964;7.642;2023-04-05T10:55:18;10.60;92.40
3380;DHT22;1703;51.964;7.642;2023-04-05T10:57:46;10.70;91.40
3380;DHT22;1703;51.964;7.642;2023-04-05T11:00:15;10.70;91.50
3380;DHT22;1703;51.964;7.642;2023-04-05T11:02:43;10.60;91.50
3380;DHT22;1703;51.964;7.642;2023-04-05T11:05:28;10.60;93.30
3380;DHT22;1703;51.964;7.642;2023-04-05T11:07:59;10.80;94.00
3380;DHT22;1703;51.964;7.642;2023-04-05T11:10:28;10.80;94.50
3380;DHT22;1703;51.964;7.642;2023-04-05T11:13:06;10.90;94.50
3380;DHT22;1703;51.964;7.642;2023-04-05T11:15:33;10.80;92.70
3380;DHT22;1703;51.964;7.642;2023-04-05T11:18:03;10.70;93.10
3380;DHT22;1703;51.964;7.642;2023-04-05T11:20:47;10.70;92.80
3380;DHT22;1703;51.964;7.642;2023-04-05T11:23:17;10.60;93.60
3380;DHT22;1703;51.964;7.642;2023-04-05T11:25:50;10.70;93.30
3380;DHT22;1703;51.964;7.642;2023-04-05T11:28:26;10.80;93.70
3380;DHT22;1703;51.964;7.642;2023-04-05T11:30:54;10.80;92.80
3380;DHT22;1703;51.964;7.642;2023-04-05T11:33:38;10.90;93.30
3380;DHT22;1703;51.964;7.642;2023-04-05T11:36:05;11.00;93.50
3380;DHT22;1703;51.964;7.642;2023-04-05T11:38:33;10.90;92.40
3380;DHT22;1703;51.964;7.642;2023-04-05T11:41:15;10.90;92.90
3380;DHT22;1703;51.964;7.642;2023-04-05T11:43:43;11.00;92.60
3380;DHT22;1703;51.964;7.642;2023-04-05T11:46:12;11.00;93.60
3380;DHT22;1703;51.964;7.642;2023-04-05T11:48:41;11.10;92.70
3380;DHT22;1703;51.964;7.642;2023-04-05T11:51:08;11.10;91.20
3380;DHT22;1703;51.964;7.642;2023-04-05T11:53:36;11.20;91.40
3380;DHT22;1703;51.964;7.642;2023-04-05T11:56:07;11.20;89.70
3380;DHT22;1703;51.964;7.642;2023-04-05T11:58:35;11.20;90.20
3380;DHT22;1703;51.964;7.642;2023-04-05T12:01:03;11.20;88.40
3380;DHT22;1703;51.964;7.642;2023-04-05T12:03:32;11.00;87.70
3380;DHT22;1703;51.964;7.642;2023-04-05T12:06:01;10.90;88.40
3380;DHT22;1703;51.964;7.642;2023-04-05T12:08:38;10.90;88.20
3380;DHT22;1703;51.964;7.642;2023-04-05T12:11:07;11.10;90.10
3380;DHT22;1703;51.964;7.642;2023-04-05T12:13:35;11.20;90.80
3380;DHT22;1703;51.964;7.642;2023-04-05T12:16:03;11.20;91.80
3380;DHT22;1703;51.964;7.642;2023-04-05T12:18:31;11.30;90.50
3380;DHT22;1703;51.964;7.642;2023-04-05T12:21:01;11.40;90.20
3380;DHT22;1703;51.964;7.642;2023-04-05T12:23:28;11.50;90.60
3380;DHT22;1703;51.964;7.642;2023-04-05T12:25:55;11.30;86.60
3380;DHT22;1703;51.964;7.642;2023-04-05T12:28:23;11.30;86.60
3380;DHT22;1703;51.964;7.642;2023-04-05T12:30:50;11.30;86.10
3380;DHT22;1703;51.964;7.642;2023-04-05T12:33:27;11.60;83.50
3380;DHT22;1703;51.964;7.642;2023-04-05T12:35:55;11.50;85.90
3380;DHT22;1703;51.964;7.642;2023-04-05T12:38:25;11.60;83.70
3380;DHT22;1703;51.964;7.642;2023-04-05T12:40:53;11.70;83.80
3380;DHT22;1703;51.964;7.642;2023-04-05T12:43:20;11.50;83.30
3380;DHT22;1703;51.964;7.642;2023-04-05T12:45:46;11.40;83.60
3380;DHT22;1703;51.964;7.642;2023-04-05T12:48:20;11.30;82.00
3380;DHT22;1703;51.964;7.642;2023-04-05T12:50:49;11.30;82.90
3380;DHT22;1703;51.964;7.642;2023-04-05T12:53:19;11.20;81.90
3380;DHT22;1703;51.964;7.642;2023-04-05T12:55:49;11.30;82.00
3380;DHT22;1703;51.964;7.642;2023-04-05T12:58:17;11.60;84.40
3380;DHT22;1703;51.964;7.642;2023-04-05T13:00:45;11.80;83.30
3380;DHT22;1703;51.964;7.642;2023-04-05T13:03:15;11.90;82.30
3380;DHT22;1703;51.964;7.642;2023-04-05T13:05:45;11.90;82.50
3380;DHT22;1703;51.964;7.642;2023-04-05T13:08:11;12.00;82.70
3380;DHT22;1703;51.964;7.642;2023-04-05T13:10:38;12.10;79.30
3380;DHT22;1703;51.964;7.642;2023-04-05T13:13:06;12.10;76.50
3380;DHT22;1703;51.964;7.642;2023-04-05T13:15:33;12.00;76.60
3380;DHT22;1703;51.964;7.642;2023-04-05T13:18:00;12.00;73.60
3380;DHT22;1703;51.964;7.642;2023-04-05T13:20:27;12.20;73.70
3380;DHT22;1703;51.964;7.642;2023-04-05T13:22:54;12.20;75.70
3380;DHT22;1703;51.964;7.642;2023-04-05T13:25:22;12.20;74.50
3380;DHT22;1703;51.964;7.642;2023-04-05T13:27:49;12.30;75.50
3380;DHT22;1703;51.964;7.642;2023-04-05T13:30:17;12.30;76.20
3380;DHT22;1703;51.964;7.642;2023-04-05T13:32:44;12.50;78.70
3380;DHT22;1703;51.964;7.642;2023-04-05T13:35:11;12.60;80.70
3380;DHT22;1703;51.964;7.642;2023-04-05T13:37:38;12.60;80.10
3380;DHT22;1703;51.964;7.642;2023-04-05T13:40:06;12.70;77.10
3380;DHT22;1703;51.964;7.642;2023-04-05T13:42:33;12.70;78.50
3380;DHT22;1703;51.964;7.642;2023-04-05T13:45:00;12.90;74.80
3380;DHT22;1703;51.964;7.642;2023-04-05T13:47:28;13.80;82.00
3380;DHT22;1703;51.964;7.642;2023-04-05T13:49:55;14.70;73.90
3380;DHT22;1703;51.964;7.642;2023-04-05T13:52:21;15.10;70.00
3380;DHT22;1703;51.964;7.642;2023-04-05T13:54:50;16.60;66.30
3380;DHT22;1703;51.964;7.642;2023-04-05T13:57:17;17.50;66.80
3380;DHT22;1703;51.964;7.642;2023-04-05T13:59:43;18.60;61.80
3380;DHT22;1703;51.964;7.642;2023-04-05T14:02:10;19.50;57.90
3380;DHT22;1703;51.964;7.642;2023-04-05T14:04:40;20.20;54.30
3380;DHT22;1703;51.964;7.642;2023-04-05T14:07:07;20.40;51.00
3380;DHT22;1703;51.964;7.642;2023-04-05T14:09:34;19.90;48.40
3380;DHT22;1703;51.964;7.642;2023-04-05T14:12:01;20.50;48.10
3380;DHT22;1703;51.964;7.642;2023-04-05T14:14:29;20.80;46.60
3380;DHT22;1703;51.964;7.642;2023-04-05T14:16:56;21.50;47.70
3380;DHT22;1703;51.964;7.642;2023-04-05T14:19:22;21.90;46.20
3380;DHT22;1703;51.964;7.642;2023-04-05T14:21:51;22.20;44.40
3380;DHT22;1703;51.964;7.642;2023-04-05T14:24:18;22.60;42.20
3380;DHT22;1703;51.964;7.642;2023-04-05T14:26:45;22.50;40.40
3380;DHT22;1703;51.964;7.642;2023-04-05T14:29:14;22.90;40.20
3380;DHT22;1703;51.964;7.642;2023-04-05T14:31:41;23.10;40.40
3380;DHT22;1703;51.964;7.642;2023-04-05T14:34:08;23.50;40.60
3380;DHT22;1703;51.964;7.642;2023-04-05T14:36:35;23.70;38.80
3380;DHT22;1703;51.964;7.642;2023-04-05T14:39:03;24.00;39.00
3380;DHT22;1703;51.964;7.642;2023-04-05T14:41:30;23.90;38.80
3380;DHT22;1703;51.964;7.642;2023-04-05T14:43:57;23.40;37.70
3380;DHT22;1703;51.964;7.642;2023-04-05T14:46:24;23.10;38.50
3380;DHT22;1703;51.964;7.642;2023-04-05T14:48:51;22.10;38.10
3380;DHT22;1703;51.964;7.642;2023-04-05T14:51:18;21.30;39.20
3380;DHT22;1703;51.964;7.642;2023-04-05T14:53:45;20.90;38.80
3380;DHT22;1703;51.964;7.642;2023-04-05T14:56:13;20.80;40.20
3380;DHT22;1703;51.964;7.642;2023-04-05T14:58:40;20.20;38.40
3380;DHT22;1703;51.964;7.642;2023-04-05T15:01:06;20.20;39.00
3380;DHT22;1703;51.964;7.642;2023-04-05T15:03:34;20.20;39.70
3380;DHT22;1703;51.964;7.642;2023-04-05T15:06:02;19.80;40.40
3380;DHT22;1703;51.964;7.642;2023-04-05T15:08:29;19.50;40.70
3380;DHT22;1703;51.964;7.642;2023-04-05T15:10:56;18.80;41.10
3380;DHT22;1703;51.964;7.642;2023-04-05T15:13:24;18.50;42.50
3380;DHT22;1703;51.964;7.642;2023-04-05T15:15:51;18.60;42.10
3380;DHT22;1703;51.964;7.642;2023-04-05T15:18:18;18.40;42.60
3380;DHT22;1703;51.964;7.642;2023-04-05T15:20:45;18.20;43.50
3380;DHT22;1703;51.964;7.642;2023-04-05T15:23:12;18.30;43.20
3380;DHT22;1703;51.964;7.642;2023-04-05T15:25:38;18.30;42.50
3380;DHT22;1703;51.964;7.642;2023-04-05T15:28:05;18.10;41.70
3380;DHT22;1703;51.964;7.642;2023-04-05T15:30:34;17.60;41.90
3380;DHT22;1703;51.964;7.642;2023-04-05T15:33:02;17.60;42.00
3380;DHT22;1703;51.964;7.642;2023-04-05T15:35:29;17.60;42.30
3380;DHT22;1703;51.964;7.642;2023-04-05T15:37:56;17.80;42.30
3380;DHT22;1703;51.964;7.642;2023-04-05T15:40:23;17.90;42.00
3380;DHT22;1703;51.964;7.642;2023-04-05T15:42:49;17.60;41.90
3380;DHT22;1703;51.964;7.642;2023-04-05T15:45:16;17.30;42.00
3380;DHT22;1703;51.964;7.642;2023-04-05T15:47:45;16.90;41.40
3380;DHT22;1703;51.964;7.642;2023-04-05T15:50:11;16.90;42.30
3380;DHT22;1703;51.964;7.642;2023-04-05T15:52:38;16.70;43.00
3380;DHT22;1703;51.964;7.642;2023-04-05T15:55:31;16.60;42.80
3380;DHT22;1703;51.964;7.642;2023-04-05T16:01:30;16.10;44.00
3380;DHT22;1703;51.964;7.642;2023-04-05T16:04:14;15.90;45.40
3380;DHT22;1703;51.964;7.642;2023-04-05T16:06:41;15.40;44.10
3380;DHT22;1703;51.964;7.642;2023-04-05T16:09:08;15.10;43.70
3380;DHT22;1703;51.964;7.642;2023-04-05T16:11:35;14.70;45.20
3380;DHT22;1703;51.964;7.642;2023-04-05T16:14:02;14.60;46.20
3380;DHT22;1703;51.964;7.642;2023-04-05T16:16:29;14.50;46.40
3380;DHT22;1703;51.964;7.642;2023-04-05T16:18:58;14.40;46.20
3380;DHT22;1703;51.964;7.642;2023-04-05T16:21:28;14.10;46.10
3380;DHT22;1703;51.964;7.642;2023-04-05T16:23:56;14.00;45.70
3380;DHT22;1703;51.964;7.642;2023-04-05T16:26:25;13.70;46.60
3380;DHT22;1703;51.964;7.642;2023-04-05T16:28:52;13.50;47.40
3380;DHT22;1703;51.964;7.642;2023-04-05T16:31:19;13.50;47.90